Time;durP1;ratioP1;P1;durP2;ratioP2;P2;SDS_P1;SDS_P2;PMS_P1;PMS_P2;Temp;Humidity;BMP_temperature;BMP_pressure;BME280_temperature;BME280_humidity;BME280_pressure;Samples;Min_cycle;Max_cycle;Signal;HPM_P1;HPM_P2
2022/06/07 00:00:11;;;;;;;3.95;3.30;;;;;;;-141.50;100.00;63355.56;5091034;28;20037;-78
2022/06/07 00:02:38;;;;;;;5.32;3.20;;;;;;;-141.50;100.00;63355.56;5085002;28;20056;-78
2022/06/07 00:05:05;;;;;;;4.10;3.20;;;;;;;-141.50;100.00;63355.56;5080483;28;20056;-79
2022/06/07 00:07:35;;;;;;;5.47;3.40;;;;;;;-141.50;100.00;63355.56;5078079;28;20056;-79
2022/06/07 00:10:03;;;;;;;6.05;3.08;;;;;;;-141.50;100.00;63355.56;5077291;28;20095;-78
2022/06/07 00:12:32;;;;;;;3.85;3.03;;;;;;;-141.50;100.00;63355.56;5080864;28;20048;-78
2022/06/07 00:14:58;;;;;;;3.58;3.13;;;;;;;-141.50;100.00;63355.56;5057938;28;20079;-76
2022/06/07 00:17:26;;;;;;;5.13;3.33;;;;;;;-141.50;100.00;63355.56;5077183;28;20282;-79
2022/06/07 00:19:53;;;;;;;5.18;3.53;;;;;;;-141.50;100.00;63355.56;5078575;28;20563;-78
2022/06/07 00:22:19;;;;;;;5.95;3.67;;;;;;;-141.50;100.00;63355.56;5082720;28;20060;-77
2022/06/07 00:24:46;;;;;;;4.82;3.42;;;;;;;-141.50;100.00;63355.56;5084870;28;20052;-80
2022/06/07 00:27:16;;;;;;;4.30;3.22;;;;;;;-141.50;100.00;63355.56;5085441;28;20044;-79
2022/06/07 00:29:44;;;;;;;4.05;3.22;;;;;;;-141.50;100.00;63355.56;5085325;28;20076;-79
2022/06/07 00:32:11;;;;;;;4.35;3.20;;;;;;;-141.50;100.00;63355.56;5068587;28;20052;-79
2022/06/07 00:34:38;;;;;;;6.07;3.75;;;;;;;-141.50;100.00;63355.56;5084620;28;20064;-80
2022/06/07 00:37:05;;;;;;;6.68;3.25;;;;;;;-141.50;100.00;63355.56;5085375;28;20045;-78
2022/06/07 00:39:34;;;;;;;10.13;3.28;;;;;;;-141.50;100.00;63355.56;5085241;28;20063;-78
2022/06/07 00:42:01;;;;;;;4.07;2.95;;;;;;;-141.50;100.00;63355.56;5083003;28;20048;-79
2022/06/07 00:44:38;;;;;;;5.28;2.95;;;;;;;-141.50;100.00;63355.56;5083033;28;20599;-77
2022/06/07 00:47:26;;;;;;;4.85;3.08;;;;;;;-141.50;100.00;63355.56;5085738;28;20082;-78
2022/06/07 00:49:57;;;;;;;3.40;2.80;;;;;;;-141.50;100.00;63355.56;5092587;28;20040;-78
2022/06/07 00:52:27;;;;;;;3.88;2.90;;;;;;;-141.50;100.00;63355.56;5086869;28;20132;-77
2022/06/07 00:54:56;;;;;;;8.65;2.85;;;;;;;-141.50;100.00;63355.56;5068387;28;20094;-78
2022/06/07 00:57:23;;;;;;;5.22;2.75;;;;;;;-141.50;100.00;63355.56;5084844;28;20048;-78
2022/06/07 00:59:51;;;;;;;6.82;2.90;;;;;;;-141.50;100.00;63355.56;5084414;28;20519;-78
2022/06/07 01:02:19;;;;;;;6.50;3.20;;;;;;;-141.50;100.00;63355.56;5084372;28;20048;-80
2022/06/07 01:04:45;;;;;;;5.57;2.97;;;;;;;-141.50;100.00;63355.56;5072963;28;20060;-77
2022/06/07 01:13:02;;;;;;;4.68;3.10;;;;;;;-141.50;100.00;63355.56;4997675;28;20094;-78
2022/06/07 01:15:29;;;;;;;5.63;3.17;;;;;;;-141.50;100.00;63355.56;5011491;28;20048;-78
2022/06/07 01:17:58;;;;;;;5.82;3.33;;;;;;;-141.50;100.00;63355.56;5061629;28;20076;-79
2022/06/07 01:20:25;;;;;;;4.32;3.00;;;;;;;-141.50;100.00;63355.56;5046619;28;20098;-78
2022/06/07 01:22:52;;;;;;;4.28;3.10;;;;;;;-141.50;100.00;63355.56;5062722;28;20053;-78
2022/06/07 01:25:21;;;;;;;5.85;3.15;;;;;;;-141.50;100.00;63355.56;5063351;28;20052;-78
2022/06/07 01:27:48;;;;;;;5.57;3.28;;;;;;;-141.50;100.00;63355.56;5064271;28;20079;-78
2022/06/07 01:30:15;;;;;;;4.60;3.35;;;;;;;-141.50;100.00;63355.56;5064431;28;20128;-80
2022/06/07 01:32:42;;;;;;;6.25;3.58;;;;;;;-141.50;100.00;63355.56;5046991;28;20075;-78
2022/06/07 01:35:09;;;;;;;6.70;3.95;;;;;;;-141.50;100.00;63355.56;5065029;28;20053;-79
2022/06/07 01:37:36;;;;;;;4.35;3.35;;;;;;;-141.50;100.00;63355.56;5066054;28;20053;-78
2022/06/07 01:42:52;;;;;;;5.40;3.78;;;;;;;-141.50;100.00;63355.56;5066387;28;20075;-78
2022/06/07 01:45:19;;;;;;;4.30;3.50;;;;;;;-141.50;100.00;63355.56;5041537;28;20072;-79
2022/06/07 01:47:49;;;;;;;7.22;3.78;;;;;;;-141.50;100.00;63355.56;5074858;28;20514;-79
2022/06/07 01:50:17;;;;;;;5.57;3.83;;;;;;;-141.50;100.00;63355.56;5056287;28;20056;-79
2022/06/07 01:52:49;;;;;;;4.90;3.67;;;;;;;-141.50;100.00;63355.56;5055949;28;20835;-79
2022/06/07 01:55:16;;;;;;;6.07;3.80;;;;;;;-141.50;100.00;63355.56;5055438;28;20110;-77
2022/06/07 01:57:42;;;;;;;6.65;3.83;;;;;;;-141.50;100.00;63355.56;5055234;28;20080;-77
2022/06/07 02:00:09;;;;;;;7.55;3.70;;;;;;;-141.50;100.00;63355.56;5055008;28;20564;-79
2022/06/07 02:02:36;;;;;;;4.80;3.45;;;;;;;-141.50;100.00;63355.56;5073355;28;20056;-77
2022/06/07 02:05:05;;;;;;;5.70;4.00;;;;;;;-141.50;100.00;63355.56;5071117;28;20057;-76
2022/06/07 02:07:32;;;;;;;7.43;4.00;;;;;;;-141.50;100.00;63355.56;5072161;28;20056;-78
2022/06/07 02:09:58;;;;;;;5.40;3.58;;;;;;;-141.50;100.00;63355.56;5073602;28;20052;-77
2022/06/07 02:12:28;;;;;;;4.22;3.30;;;;;;;-141.50;100.00;63355.56;5072042;28;20055;-77
2022/06/07 02:14:54;;;;;;;5.53;3.03;;;;;;;-141.50;100.00;63355.56;5078531;28;20095;-79
2022/06/07 02:17:23;;;;;;;6.28;3.25;;;;;;;-141.50;100.00;63355.56;5054230;28;20079;-80
2022/06/07 02:19:50;;;;;;;7.53;3.28;;;;;;;-141.50;100.00;63355.56;5074117;28;20084;-78
2022/06/07 02:22:17;;;;;;;6.85;3.42;;;;;;;-141.50;100.00;63355.56;5072745;28;20044;-79
2022/06/07 02:24:43;;;;;;;6.18;3.20;;;;;;;-141.50;100.00;63355.56;5071236;28;20463;-79
2022/06/07 02:27:14;;;;;;;7.85;2.92;;;;;;;-141.50;100.00;63355.56;5071914;28;20048;-79
2022/06/07 02:29:45;;;;;;;5.35;3.10;;;;;;;-141.50;100.00;63355.56;5083031;28;20041;-76
2022/06/07 02:32:23;;;;;;;5.80;3.72;;;;;;;-141.50;100.00;63355.56;5087072;28;20052;-77
2022/06/07 02:34:56;;;;;;;5.57;3.35;;;;;;;-141.50;100.00;63355.56;5083527;28;20056;-78
2022/06/07 02:37:24;;;;;;;6.50;3.20;;;;;;;-141.50;100.00;63355.56;5072644;28;20182;-79
2022/06/07 02:39:51;;;;;;;9.98;3.65;;;;;;;-141.50;100.00;63355.56;5070964;28;20125;-78
2022/06/07 02:42:22;;;;;;;6.97;3.30;;;;;;;-141.50;100.00;63355.56;5071092;28;20088;-79
2022/06/07 02:44:48;;;;;;;5.53;3.00;;;;;;;-141.50;100.00;63355.56;5070380;28;20056;-79
2022/06/07 02:47:15;;;;;;;7.57;3.70;;;;;;;-141.50;100.00;63355.56;5071325;28;20083;-80
2022/06/07 02:49:44;;;;;;;6.22;3.58;;;;;;;-141.50;100.00;63355.56;5070263;28;20162;-80
2022/06/07 02:52:12;;;;;;;7.47;3.40;;;;;;;-141.50;100.00;63355.56;5070474;28;20049;-78
2022/06/07 02:54:38;;;;;;;5.25;3.58;;;;;;;-141.50;100.00;63355.56;5053003;28;20079;-77
2022/06/07 02:57:05;;;;;;;6.93;3.58;;;;;;;-141.50;100.00;63355.56;5075589;28;20062;-78
2022/06/07 02:59:31;;;;;;;5.43;3.00;;;;;;;-141.50;100.00;63355.56;5068483;28;20052;-76
2022/06/07 03:01:58;;;;;;;6.93;3.40;;;;;;;-141.50;100.00;63355.56;5088803;28;20048;-76
2022/06/07 03:04:25;;;;;;;5.43;3.63;;;;;;;-141.50;100.00;63355.56;5089431;28;20082;-76
2022/06/07 03:06:52;;;;;;;6.03;3.90;;;;;;;-141.50;100.00;63355.56;5088944;28;20076;-77
2022/06/07 03:09:19;;;;;;;8.73;3.60;;;;;;;-141.50;100.00;63355.56;5088613;28;20150;-77
2022/06/07 03:11:45;;;;;;;5.07;3.40;;;;;;;-141.50;100.00;63355.56;5089843;28;20045;-77
2022/06/07 03:14:12;;;;;;;6.00;3.58;;;;;;;-141.50;100.00;63355.56;5091571;28;20051;-77
2022/06/07 03:16:39;;;;;;;11.27;3.70;;;;;;;-141.50;100.00;63355.56;5072527;28;20044;-78
2022/06/07 03:19:06;;;;;;;7.18;3.80;;;;;;;-141.50;100.00;63355.56;5069127;28;20040;-77
2022/06/07 03:21:33;;;;;;;11.65;4.00;;;;;;;-141.50;100.00;63355.56;5063599;28;20082;-78
2022/06/07 03:23:59;;;;;;;7.32;3.90;;;;;;;-141.50;100.00;63355.56;5055409;28;20110;-80
2022/06/07 03:26:26;;;;;;;5.53;3.95;;;;;;;-141.50;100.00;63355.56;5055083;28;20044;-79
2022/06/07 03:28:53;;;;;;;4.75;3.55;;;;;;;-141.50;100.00;63355.56;5054699;28;20075;-77
2022/06/07 03:31:19;;;;;;;5.60;3.35;;;;;;;-141.50;100.00;63355.56;5074451;28;20048;-78
2022/06/07 03:33:47;;;;;;;6.35;3.53;;;;;;;-141.50;100.00;63355.56;5074147;28;20110;-78
2022/06/07 03:36:20;;;;;;;4.10;3.50;;;;;;;-141.50;100.00;63355.56;5073582;28;20118;-80
2022/06/07 03:38:47;;;;;;;9.88;3.60;;;;;;;-141.50;100.00;63355.56;5052000;28;20048;-79
2022/06/07 03:41:17;;;;;;;6.57;3.45;;;;;;;-141.50;100.00;63355.56;5070364;28;20483;-78
2022/06/07 03:43:44;;;;;;;5.45;3.40;;;;;;;-141.50;100.00;63355.56;5069908;28;20093;-79
2022/06/07 03:46:15;;;;;;;5.78;3.70;;;;;;;-141.50;100.00;63355.56;5075059;28;20048;-79
2022/06/07 03:48:44;;;;;;;5.65;3.40;;;;;;;-141.50;100.00;63355.56;5083826;28;20044;-79
2022/06/07 03:51:12;;;;;;;5.82;3.92;;;;;;;-141.50;100.00;63355.56;5054802;28;20056;-78
2022/06/07 03:53:40;;;;;;;5.20;3.40;;;;;;;-141.50;100.00;63355.56;5087933;28;20433;-76
2022/06/07 03:56:09;;;;;;;6.68;3.83;;;;;;;-141.50;100.00;63355.56;5091714;28;20062;-78
2022/06/07 03:58:39;;;;;;;5.75;3.55;;;;;;;-141.50;100.00;63355.56;5096525;28;20088;-78
2022/06/07 04:01:08;;;;;;;8.02;4.00;;;;;;;-141.50;100.00;63355.56;5094213;28;20460;-79
2022/06/07 04:03:42;;;;;;;5.93;3.78;;;;;;;-141.50;100.00;63355.56;5080522;28;20522;-78
2022/06/07 04:06:24;;;;;;;4.65;3.65;;;;;;;-141.50;100.00;63355.56;5098512;28;20504;-79
2022/06/07 04:08:51;;;;;;;6.53;3.83;;;;;;;-141.50;100.00;63355.56;5095895;28;20048;-79
2022/06/07 04:11:20;;;;;;;7.50;3.75;;;;;;;-141.50;100.00;63355.56;5097175;28;20044;-79
2022/06/07 04:13:49;;;;;;;9.18;3.63;;;;;;;-141.50;100.00;63355.56;5090041;28;20126;-79
2022/06/07 04:16:19;;;;;;;5.78;3.80;;;;;;;-141.50;100.00;63355.56;5078640;28;20088;-79
2022/06/07 04:18:46;;;;;;;5.45;3.20;;;;;;;-141.50;100.00;63355.56;5062556;28;20049;-78
2022/06/07 04:21:13;;;;;;;5.38;3.28;;;;;;;-141.50;100.00;63355.56;5078391;28;20136;-79
2022/06/07 04:23:41;;;;;;;9.45;3.40;;;;;;;-141.50;100.00;63355.56;5075668;28;20056;-78
2022/06/07 04:26:23;;;;;;;4.93;2.80;;;;;;;-141.50;100.00;63355.56;5076393;28;20468;-80
2022/06/07 04:28:50;;;;;;;5.85;3.00;;;;;;;-141.50;100.00;63355.56;5095015;28;20052;-79
2022/06/07 04:31:22;;;;;;;6.80;3.45;;;;;;;-141.50;100.00;63355.56;5099900;28;20048;-79
2022/06/07 04:33:49;;;;;;;3.83;3.05;;;;;;;-141.50;100.00;63355.56;5098514;28;20044;-78
2022/06/07 04:36:18;;;;;;;4.95;3.10;;;;;;;-141.50;100.00;63355.56;5101634;28;20424;-78
2022/06/07 04:38:47;;;;;;;5.13;3.00;;;;;;;-141.50;100.00;63355.56;5100376;28;20543;-80
2022/06/07 04:41:17;;;;;;;5.68;3.20;;;;;;;-141.50;100.00;63355.56;5082674;28;20043;-78
2022/06/07 04:43:47;;;;;;;4.82;3.10;;;;;;;-141.50;100.00;63355.56;5068134;28;20086;-78
2022/06/07 04:46:15;;;;;;;8.20;3.30;;;;;;;-141.50;100.00;63355.56;5080134;28;20071;-78
2022/06/07 04:48:44;;;;;;;6.40;2.92;;;;;;;-141.50;100.00;63355.56;5090211;28;20051;-78
2022/06/07 04:51:19;;;;;;;6.80;2.83;;;;;;;-141.50;100.00;63355.56;5101875;28;20044;-78
2022/06/07 04:53:47;;;;;;;7.97;3.13;;;;;;;-141.50;100.00;63355.56;5106996;28;20060;-77
2022/06/07 04:56:21;;;;;;;9.13;3.25;;;;;;;-141.50;100.00;63355.56;5080621;28;20052;-80
2022/06/07 04:58:48;;;;;;;5.80;3.30;;;;;;;-141.50;100.00;63355.56;5046257;28;20056;-77
2022/06/07 05:01:20;;;;;;;6.32;3.20;;;;;;;-141.50;100.00;63355.56;5077557;28;20048;-80
2022/06/07 05:03:48;;;;;;;4.05;2.92;;;;;;;-141.50;100.00;63355.56;5076948;28;20113;-80
2022/06/07 05:06:33;;;;;;;4.38;3.08;;;;;;;-141.50;100.00;63355.56;5081705;28;20060;-80
2022/06/07 05:09:20;;;;;;;5.82;2.92;;;;;;;-141.50;100.00;63355.56;5081465;28;20575;-76
2022/06/07 05:11:47;;;;;;;9.45;3.30;;;;;;;-141.50;100.00;63355.56;5082698;28;20044;-79
2022/06/07 05:14:14;;;;;;;5.55;3.20;;;;;;;-141.50;100.00;63355.56;5075323;28;20050;-78
2022/06/07 05:16:43;;;;;;;4.07;3.05;;;;;;;-141.50;100.00;63355.56;5075295;28;20048;-80
2022/06/07 05:19:12;;;;;;;9.25;3.33;;;;;;;-141.50;100.00;63355.56;5058341;28;20048;-78
2022/06/07 05:21:40;;;;;;;4.68;3.08;;;;;;;-141.50;100.00;63355.56;5074560;28;20508;-79
2022/06/07 05:24:07;;;;;;;4.85;2.90;;;;;;;-141.50;100.00;63355.56;5074721;28;20048;-79
2022/06/07 05:26:42;;;;;;;6.22;2.80;;;;;;;-141.50;100.00;63355.56;5057884;28;20445;-77
2022/06/07 05:29:44;;;;;;;8.13;3.00;;;;;;;-141.50;100.00;63355.56;5075178;28;20060;-78
2022/06/07 05:32:11;;;;;;;4.32;2.88;;;;;;;-141.50;100.00;63355.56;5059618;28;20044;-80
2022/06/07 05:34:37;;;;;;;6.15;2.83;;;;;;;-141.50;100.00;63355.56;5055037;28;20087;-81
2022/06/07 05:37:04;;;;;;;6.20;3.10;;;;;;;-141.50;100.00;63355.56;5072594;28;20060;-80
2022/06/07 05:39:31;;;;;;;5.28;2.80;;;;;;;-141.50;100.00;63355.56;5054344;28;20048;-80
2022/06/07 05:41:58;;;;;;;3.55;2.47;;;;;;;-141.50;100.00;63355.56;5080902;28;20117;-78
2022/06/07 05:44:25;;;;;;;8.02;2.60;;;;;;;-141.50;100.00;63355.56;5064795;28;20073;-78
2022/06/07 05:46:52;;;;;;;5.85;2.50;;;;;;;-141.50;100.00;63355.56;5081445;28;20052;-79
2022/06/07 05:49:19;;;;;;;6.25;2.90;;;;;;;-141.50;100.00;63355.56;5088524;28;20525;-79
2022/06/07 05:51:49;;;;;;;4.80;2.28;;;;;;;-141.50;100.00;63355.56;5089889;28;20044;-78
2022/06/07 05:54:17;;;;;;;4.93;2.72;;;;;;;-141.50;100.00;63355.56;5085566;28;20045;-79
2022/06/07 05:56:43;;;;;;;6.13;2.70;;;;;;;-141.50;100.00;63355.56;5081835;28;20078;-78
2022/06/07 05:59:13;;;;;;;6.88;2.72;;;;;;;-141.50;100.00;63355.56;5060586;28;20048;-77
2022/06/07 06:01:39;;;;;;;3.90;2.85;;;;;;;-141.50;100.00;63355.56;5083604;28;20076;-78
2022/06/07 06:04:07;;;;;;;5.47;3.20;;;;;;;-141.50;100.00;63355.56;5081285;28;20101;-79
2022/06/07 06:06:35;;;;;;;4.28;2.78;;;;;;;-141.50;100.00;63355.56;5056925;28;20048;-78
2022/06/07 06:11:50;;;;;;;4.28;2.50;;;;;;;-141.50;100.00;63355.56;5078873;28;20102;-78
2022/06/07 06:14:19;;;;;;;6.35;2.80;;;;;;;-141.50;100.00;63355.56;5052486;28;20052;-78
2022/06/07 06:16:45;;;;;;;8.35;2.33;;;;;;;-141.50;100.00;63355.56;5075920;28;20071;-78
2022/06/07 06:19:12;;;;;;;4.30;2.60;;;;;;;-141.50;100.00;63355.56;5071227;28;20111;-79
2022/06/07 06:21:42;;;;;;;7.53;2.67;;;;;;;-141.50;100.00;63355.56;5073446;28;20052;-79
2022/06/07 06:24:09;;;;;;;4.03;2.38;;;;;;;-141.50;100.00;63355.56;5069003;28;20060;-78
2022/06/07 06:26:38;;;;;;;6.72;2.47;;;;;;;-141.50;100.00;63355.56;5054150;28;20063;-79
2022/06/07 06:29:08;;;;;;;4.57;2.50;;;;;;;-141.50;100.00;63355.56;5034214;28;20440;-80
2022/06/07 06:31:36;;;;;;;7.68;2.35;;;;;;;-141.50;100.00;63355.56;5058869;28;20049;-80
2022/06/07 06:34:03;;;;;;;5.68;2.40;;;;;;;-141.50;100.00;63355.56;5071891;28;20048;-79
2022/06/07 06:36:30;;;;;;;3.45;2.30;;;;;;;-141.50;100.00;63355.56;5064207;28;20052;-80
2022/06/07 06:38:58;;;;;;;3.80;2.05;;;;;;;-141.50;100.00;63355.56;5073980;28;20167;-78
2022/06/07 06:41:30;;;;;;;5.63;2.30;;;;;;;-141.50;100.00;63355.56;5062126;28;20531;-78
2022/06/07 06:44:00;;;;;;;5.28;2.40;;;;;;;-141.50;100.00;63355.56;5077898;28;20048;-78
2022/06/07 06:46:30;;;;;;;4.35;2.00;;;;;;;-141.50;100.00;63355.56;5062148;28;20055;-79
2022/06/07 06:48:57;;;;;;;5.00;2.30;;;;;;;-141.50;100.00;63355.56;5070267;28;20060;-79
2022/06/07 06:51:27;;;;;;;5.28;1.92;;;;;;;-141.50;100.00;63355.56;5071839;28;20053;-77
2022/06/07 06:53:58;;;;;;;5.07;2.17;;;;;;;-141.50;100.00;63355.56;5043354;28;20340;-77
2022/06/07 06:56:28;;;;;;;5.75;2.15;;;;;;;-141.50;100.00;63355.56;5040810;28;20200;-79
2022/06/07 06:58:55;;;;;;;7.50;2.50;;;;;;;-141.50;100.00;63355.56;5064342;28;20056;-79
2022/06/07 07:01:28;;;;;;;3.15;2.47;;;;;;;-141.50;100.00;63355.56;5051857;28;20048;-77
2022/06/07 07:03:56;;;;;;;6.05;3.53;;;;;;;-141.50;100.00;63355.56;5072953;28;20070;-77
2022/06/07 07:06:23;;;;;;;5.70;2.30;;;;;;;-141.50;100.00;63355.56;5055651;28;20080;-77
2022/06/07 07:08:51;;;;;;;17.63;2.30;;;;;;;-141.50;100.00;63355.56;5074032;28;20113;-77
2022/06/07 07:11:27;;;;;;;5.47;2.30;;;;;;;-141.50;100.00;63355.56;5067907;28;20053;-76
2022/06/07 07:13:56;;;;;;;3.55;2.25;;;;;;;-141.50;100.00;63355.56;5086906;28;20052;-76
2022/06/07 07:16:29;;;;;;;3.25;2.13;;;;;;;-141.50;100.00;63355.56;5064455;28;20350;-78
2022/06/07 07:18:56;;;;;;;3.20;2.38;;;;;;;-141.50;100.00;63355.56;5082088;28;20056;-77
2022/06/07 07:21:29;;;;;;;10.20;2.67;;;;;;;-141.50;100.00;63355.56;5080786;28;20055;-77
2022/06/07 07:23:58;;;;;;;3.92;2.40;;;;;;;-141.50;100.00;63355.56;5071420;28;20115;-76
2022/06/07 07:26:27;;;;;;;3.95;2.53;;;;;;;-141.50;100.00;63355.56;5083488;28;20083;-76
2022/06/07 07:28:54;;;;;;;5.25;2.42;;;;;;;-141.50;100.00;63355.56;5067592;28;20372;-76
2022/06/07 07:31:31;;;;;;;5.40;3.35;;;;;;;-141.50;100.00;63355.56;5072173;28;20044;-78
2022/06/07 07:33:59;;;;;;;8.18;2.63;;;;;;;-141.50;100.00;63355.56;5075517;28;20135;-75
2022/06/07 07:36:26;;;;;;;5.50;2.70;;;;;;;-141.50;100.00;63355.56;5064474;28;20552;-78
2022/06/07 07:38:53;;;;;;;5.10;2.30;;;;;;;-141.50;100.00;63355.56;5081075;28;20701;-79
2022/06/07 07:41:21;;;;;;;4.18;2.63;;;;;;;-141.50;100.00;63355.56;5082058;28;20056;-78
2022/06/07 07:43:49;;;;;;;9.88;2.85;;;;;;;-141.50;100.00;63355.56;5084810;28;20170;-78
2022/06/07 07:46:17;;;;;;;10.13;3.38;;;;;;;-141.50;100.00;63355.56;5065872;28;20063;-76
2022/06/07 07:48:44;;;;;;;9.18;2.90;;;;;;;-141.50;100.00;63355.56;5070477;28;20161;-79
2022/06/07 07:51:26;;;;;;;6.80;3.20;;;;;;;-141.50;100.00;63355.56;5081485;28;20451;-76
2022/06/07 07:53:55;;;;;;;12.60;5.00;;;;;;;-141.50;100.00;63355.56;5058136;28;20152;-78
2022/06/07 07:56:23;;;;;;;11.32;3.33;;;;;;;-141.50;100.00;63355.56;5073440;28;20503;-77
2022/06/07 07:58:51;;;;;;;9.35;2.42;;;;;;;-141.50;100.00;63355.56;5057864;28;20102;-81
2022/06/07 08:01:23;;;;;;;4.30;2.20;;;;;;;-141.50;100.00;63355.56;5059495;28;20078;-81
2022/06/07 08:03:51;;;;;;;2.70;2.13;;;;;;;-141.50;100.00;63355.56;5074399;28;20048;-79
2022/06/07 08:06:21;;;;;;;5.55;2.67;;;;;;;-141.50;100.00;63355.56;5066853;28;20078;-80
2022/06/07 08:08:50;;;;;;;7.28;2.80;;;;;;;-141.50;100.00;63355.56;5074947;28;20075;-83
2022/06/07 08:11:19;;;;;;;6.40;2.50;;;;;;;-141.50;100.00;63355.56;5078096;28;20093;-80
2022/06/07 08:13:45;;;;;;;5.72;3.05;;;;;;;-141.50;100.00;63355.56;5075984;28;20075;-81
2022/06/07 08:16:14;;;;;;;6.72;2.88;;;;;;;-141.50;100.00;63355.56;5077667;28;20053;-77
2022/06/07 08:18:41;;;;;;;3.70;2.60;;;;;;;-141.50;100.00;63355.56;5079177;28;20127;-80
2022/06/07 08:21:13;;;;;;;5.45;2.67;;;;;;;-141.50;100.00;63355.56;5078538;28;20489;-79
2022/06/07 08:23:40;;;;;;;4.65;2.70;;;;;;;-141.50;100.00;63355.56;5085691;28;20052;-79
2022/06/07 08:26:08;;;;;;;5.57;2.40;;;;;;;-141.50;100.00;63355.56;5087709;28;20056;-79
2022/06/07 08:28:35;;;;;;;3.50;2.30;;;;;;;-141.50;100.00;63355.56;5087904;28;20094;-82
2022/06/07 08:31:03;;;;;;;6.30;2.17;;;;;;;-141.50;100.00;63355.56;5087147;28;20120;-79
2022/06/07 08:39:07;;;;;;;;;;;;;;;-141.50;100.00;63355.56;5077890;28;20052;-80
2022/06/07 08:41:52;;;;;;;2.92;1.92;;;;;;;-141.50;100.00;63355.56;5080349;28;19928;-79
2022/06/07 08:44:28;;;;;;;7.45;2.10;;;;;;;-141.50;100.00;63355.56;5055429;28;20209;-78
2022/06/07 08:47:01;;;;;;;7.07;1.98;;;;;;;-141.50;100.00;63355.56;5079127;28;20071;-79
2022/06/07 08:49:28;;;;;;;3.03;1.55;;;;;;;-141.50;100.00;63355.56;5074221;28;20123;-80
2022/06/07 08:52:22;;;;;;;3.65;1.83;;;;;;;-141.50;100.00;63355.56;5076193;28;20048;-81
2022/06/07 08:54:58;;;;;;;5.45;1.88;;;;;;;-141.50;100.00;63355.56;5055046;28;20110;-80
2022/06/07 08:57:30;;;;;;;6.30;1.90;;;;;;;-141.50;100.00;63355.56;5058431;28;20052;-79
2022/06/07 09:00:15;;;;;;;7.85;1.85;;;;;;;-141.50;100.00;63355.56;5059252;28;20059;-78
2022/06/07 09:03:06;;;;;;;3.58;1.80;;;;;;;-141.50;100.00;63355.56;5057909;28;20056;-81
2022/06/07 09:05:33;;;;;;;3.13;1.95;;;;;;;-141.50;100.00;63355.56;5074792;28;20045;-79
2022/06/07 09:08:00;;;;;;;5.47;1.92;;;;;;;-141.50;100.00;63355.56;5073196;28;20583;-79
2022/06/07 09:13:16;;;;;;;4.65;1.70;;;;;;;-141.50;100.00;63355.56;5072976;28;20106;-77
2022/06/07 09:15:46;;;;;;;4.20;1.80;;;;;;;-141.50;100.00;63355.56;5056634;28;20148;-79
2022/06/07 09:18:15;;;;;;;5.82;1.80;;;;;;;-141.50;100.00;63355.56;5077715;28;20044;-81
2022/06/07 09:20:46;;;;;;;18.27;2.00;;;;;;;-141.50;100.00;63355.56;5076661;28;20079;-77
2022/06/07 09:23:15;;;;;;;26.98;5.63;;;;;;;-141.50;100.00;63355.56;5085641;28;20118;-76
2022/06/07 09:25:48;;;;;;;16.73;2.33;;;;;;;-141.50;100.00;63355.56;5066816;28;20049;-77
2022/06/07 09:28:27;;;;;;;5.07;2.30;;;;;;;-141.50;100.00;63355.56;5082035;28;20056;-78
2022/06/07 09:30:58;;;;;;;7.50;2.30;;;;;;;-141.50;100.00;63355.56;5077909;28;20068;-81
2022/06/07 09:33:32;;;;;;;8.85;2.20;;;;;;;-141.50;100.00;63355.56;5060319;28;20147;-79
2022/06/07 09:36:24;;;;;;;7.70;2.10;;;;;;;-141.50;100.00;63355.56;5058924;28;20106;-79
2022/06/07 09:38:56;;;;;;;15.10;3.15;;;;;;;-141.50;100.00;63355.56;5073472;28;20052;-82
2022/06/07 09:41:36;;;;;;;57.95;6.00;;;;;;;-141.50;100.00;63355.56;5078257;28;20174;-82
2022/06/07 09:44:13;;;;;;;3.97;1.73;;;;;;;-141.50;100.00;63355.56;5063754;28;20409;-84
2022/06/07 09:46:43;;;;;;;4.65;1.65;;;;;;;-141.50;100.00;63355.56;5071245;28;20590;-81
2022/06/07 09:49:32;;;;;;;5.50;1.75;;;;;;;-141.50;100.00;63355.56;5055220;28;20083;-84
2022/06/07 09:52:21;;;;;;;3.33;1.85;;;;;;;-141.50;100.00;63355.56;5075824;28;20443;-79
2022/06/07 09:54:50;;;;;;;4.28;1.70;;;;;;;-141.50;100.00;63355.56;5053553;28;20060;-78
2022/06/07 09:57:33;;;;;;;3.88;1.50;;;;;;;-141.50;100.00;63355.56;5072134;28;20084;-78
2022/06/07 10:00:18;;;;;;;3.30;1.60;;;;;;;-141.50;100.00;63355.56;5072738;28;20576;-82
2022/06/07 10:03:00;;;;;;;3.05;1.30;;;;;;;-141.50;100.00;63355.56;5057935;28;20367;-78
2022/06/07 10:05:40;;;;;;;6.78;1.50;;;;;;;-141.50;100.00;63355.56;5079166;28;20104;-76
2022/06/07 10:08:29;;;;;;;2.67;1.48;;;;;;;-141.50;100.00;63355.56;5075499;28;20500;-80
2022/06/07 10:11:10;;;;;;;3.42;1.50;;;;;;;-141.50;100.00;63355.56;5071646;28;20055;-77
2022/06/07 10:13:48;;;;;;;5.15;1.55;;;;;;;-141.50;100.00;63355.56;5070640;28;20071;-78
2022/06/07 10:16:33;;;;;;;2.58;1.40;;;;;;;-141.50;100.00;63355.56;5052111;28;20048;-77
2022/06/07 10:19:18;;;;;;;2.70;1.05;;;;;;;-141.50;100.00;63355.56;5051447;28;20071;-78
2022/06/07 10:21:51;;;;;;;3.07;1.20;;;;;;;-141.50;100.00;63355.56;5081242;28;20535;-80
2022/06/07 10:24:36;;;;;;;4.15;1.30;;;;;;;-141.50;100.00;63355.56;5090963;28;20094;-79
2022/06/07 10:27:16;;;;;;;2.33;1.33;;;;;;;-141.50;100.00;63355.56;5084354;28;20200;-77
2022/06/07 10:30:01;;;;;;;1.77;1.27;;;;;;;-141.50;100.00;63355.56;5069732;28;20052;-78
2022/06/07 10:33:06;;;;;;;2.47;1.20;;;;;;;-141.50;100.00;63355.56;5070780;28;20116;-78
2022/06/07 10:35:51;;;;;;;5.20;1.02;;;;;;;-141.50;100.00;63355.56;5052007;28;20504;-79
2022/06/07 10:38:40;;;;;;;3.47;1.17;;;;;;;-141.50;100.00;63355.56;5051821;28;20080;-77
2022/06/07 10:41:26;;;;;;;3.53;1.20;;;;;;;-141.50;100.00;63355.56;5053951;28;20068;-78
2022/06/07 10:44:01;;;;;;;4.25;1.17;;;;;;;-141.50;100.00;63355.56;5061546;28;20075;-79
2022/06/07 10:46:29;;;;;;;1.65;0.82;;;;;;;-141.50;100.00;63355.56;5040624;28;20057;-82
2022/06/07 10:49:05;;;;;;;1.73;1.00;;;;;;;-141.50;100.00;63355.56;5039561;28;20057;-78
2022/06/07 10:54:46;;;;;;;7.68;1.40;;;;;;;-141.50;100.00;63355.56;5057371;28;20053;-78
2022/06/07 10:57:16;;;;;;;5.45;1.08;;;;;;;-141.50;100.00;63355.56;5044515;28;20048;-79
2022/06/07 10:59:43;;;;;;;3.35;0.88;;;;;;;-141.50;100.00;63355.56;5063114;28;20053;-78
2022/06/07 11:02:12;;;;;;;1.67;1.08;;;;;;;-141.50;100.00;63355.56;5060112;28;20475;-80
2022/06/07 11:10:50;;;;;;;3.78;1.20;;;;;;;-141.50;100.00;63355.56;5061142;28;20128;-78
2022/06/07 11:13:30;;;;;;;3.15;1.13;;;;;;;-141.50;100.00;63355.56;5064476;28;20111;-78
2022/06/07 11:16:03;;;;;;;4.88;1.30;;;;;;;-141.50;100.00;63355.56;5078423;28;20048;-79
2022/06/07 11:18:33;;;;;;;5.45;1.65;;;;;;;-141.50;100.00;63355.56;5081455;28;20100;-79
2022/06/07 11:21:03;;;;;;;6.32;1.58;;;;;;;-141.50;100.00;63355.56;5062840;28;20082;-80
2022/06/07 11:23:57;;;;;;;6.53;1.30;;;;;;;-141.50;100.00;63355.56;5080247;28;20064;-79
2022/06/07 11:26:58;;;;;;;7.45;1.52;;;;;;;-141.50;100.00;63355.56;5071234;28;20052;-79
2022/06/07 11:29:27;;;;;;;6.55;1.35;;;;;;;-141.50;100.00;63355.56;5064818;28;20071;-78
2022/06/07 11:31:54;;;;;;;7.85;1.70;;;;;;;-141.50;100.00;63355.56;5083924;28;20102;-77
2022/06/07 11:34:25;;;;;;;8.65;1.40;;;;;;;-141.50;100.00;63355.56;5081133;28;20056;-80
2022/06/07 11:36:56;;;;;;;12.13;1.88;;;;;;;-141.50;100.00;63355.56;5072338;28;20044;-77
2022/06/07 11:39:38;;;;;;;10.48;1.73;;;;;;;-141.50;100.00;63355.56;5081259;28;20048;-79
2022/06/07 11:42:11;;;;;;;7.78;1.80;;;;;;;-141.50;100.00;63355.56;5085714;28;20103;-76
2022/06/07 11:44:45;;;;;;;7.53;1.90;;;;;;;-141.50;100.00;63355.56;5083952;28;20071;-78
2022/06/07 11:47:16;;;;;;;13.98;1.90;;;;;;;-141.50;100.00;63355.56;5087752;28;20055;-78
2022/06/07 11:49:46;;;;;;;15.02;2.05;;;;;;;-141.50;100.00;63355.56;5080401;28;20567;-76
2022/06/07 11:52:13;;;;;;;15.75;1.92;;;;;;;-141.50;100.00;63355.56;5078822;28;20465;-78
2022/06/07 11:54:45;;;;;;;15.10;1.83;;;;;;;-141.50;100.00;63355.56;5077297;28;20058;-77